Terminal Aerodrome Forecast
Issued by NWS Dodge City, KS

Home | Current Version | Previous Version | Graphics & Text | Print | Product List | Glossary Off
Versions: 1 2 3 4 5 6 7 8 9 10 11 12 13 14 15 16 17 18 19 20 21 22 23 24 25 26 27 28 29 30 31 32 33 34 35 36 37 38 39 40 41

000
FTUS43 KDDC 252200 AAB
TAFDDC
TAF AMD
KDDC 252252Z 2523/2618 16012G20KT P6SM VCTS BKN090CB
      TEMPO 2523/2601 25030G40KT
     FM260100 16008KT P6SM BKN200
     FM261200 VRB06KT P6SM BKN200=

USA.gov is the U.S. government's official web portal to all federal, state and local government web resources and services.